CheckWX is a tool to help pilots better visualize weather data.  It is not intended as a substitute for an official pre-flight weather briefing.

14:04:18 UTC

KUXL METAR
Southland Field
Sulphur, Louisiana, USA
Current

29 mins ago

KUXL 131335Z AUTO 24006KT 10SM OVC011 29/27 A2994 RMK AO2 T02910265
Observed
Jul-13 @ 13:35 UTC
Wind
  • 240° at 6 KTS
Visibility
10 SM
Flight Rules
MVFR
Cloud Levels
  • Overcast at 1,100' AGL
Temperature
29°C / 84°F
Dewpoint
26°C / 79°F
Humidity
84%
Altimeter
29.94" Hg
Pressure
1013.92 hPa
Previous

49 mins ago

KUXL 131315Z AUTO 24007KT 10SM OVC011 29/27 A2994 RMK AO2 T02890265
Observed
Jul-13 @ 13:15 UTC
Wind
  • 240° at 7 KTS
Visibility
10 SM
Flight Rules
MVFR
Cloud Levels
  • Overcast at 1,100' AGL
Temperature
29°C / 84°F
Dewpoint
26°C / 79°F
Humidity
84%
Altimeter
29.94" Hg
Pressure
1013.92 hPa
Previous

1 hour ago

KUXL 131255Z AUTO 24005KT 10SM OVC011 28/27 A2993 RMK AO2 T02830265
Observed
Jul-13 @ 12:55 UTC
Wind
  • 240° at 5 KTS
Visibility
10 SM
Flight Rules
MVFR
Cloud Levels
  • Overcast at 1,100' AGL
Temperature
28°C / 82°F
Dewpoint
26°C / 79°F
Humidity
89%
Altimeter
29.93" Hg
Pressure
1013.52 hPa